• Join FlightAware (Why Join?)
  • Login
  • US Flag 
03:29AM EDT


 

Airport Tracker/Info


-or-


 

Live Flight TrackerFlight Track Log ✈ EJA922 ✈ 07-Jan-2014 ✈ KPDX - KDIJ

Flight Track Log - Related Links

Times and Time Zones

All times are in EST time to prevent confusion due to time zone crossing. See the EJA922 flight status page for this flight to view local times or setup timezone preferences in your user account.

Time Position Orientation Groundspeed Altitude Reporting Facility
EST Latitude Longitude Course Direction KTS MPH feet Rate Location/Type
04:57PM 45.5806 -122.5483 102° East 188 216 1,300  Level Seattle Center
04:58PM 45.5736 -122.4642 97° East 249 287 4,600 3,240 Climbing Seattle Center
04:58PM 45.5739 -122.4569 87° East 236 272 4,600 2,700 Level Seattle Center
04:59PM 45.5931 -122.3478 76° East 283 326 7,600 2,880 Climbing Seattle Center
05:00PM 45.6317 -122.2253 66° East 324 373 10,500 2,400 Climbing Seattle Center
05:01PM 45.6961 -122.1214 48° Northeast 353 406 12,500 1,800 Climbing Seattle Center
05:02PM 45.7453 -121.9853 63° Northeast 393 452 14,200 1,860 Climbing Seattle Center
05:03PM 45.7447 -121.8228 90° East 407 468 16,400 1,860 Climbing Seattle Center
05:04PM 45.7442 -121.6689 90° East 419 482 18,000 1,740 Climbing Seattle Center
05:05PM 45.7422 -121.4997 91° East 426 490 20,000 1,920 Climbing Seattle Center
05:06PM 45.7403 -121.3297 91° East 428 493 22,000 1,920 Climbing Seattle Center
05:07PM 45.7392 -121.1558 90° East 436 502 24,000 1,740 Climbing Seattle Center
05:08PM 45.7386 -120.9811 90° East 440 506 25,600 1,620 Climbing Seattle Center
05:09PM 45.7347 -120.7761 91° East 451 519 27,300 1,500 Climbing Seattle Center
05:10PM 45.7325 -120.6161 91° East 462 532 28,700 1,260 Climbing Seattle Center
05:11PM 45.7300 -120.4281 91° East 472 543 29,900 1,200 Climbing Seattle Center
05:12PM 45.7261 -120.1847 91° East 505 581 31,200 1,380 Climbing Seattle Center
05:13PM 45.7225 -119.9772 91° East 517 595 32,700 1,440 Climbing Seattle Center
05:14PM 45.7172 -119.7672 92° East 524 603 34,200 1,080 Climbing Seattle Center
05:15PM 45.7131 -119.5575 92° East 526 605 35,000 360 Climbing Seattle Center
05:16PM 45.7083 -119.3361 92° East 554 638 35,000  Level Seattle Center
05:17PM 45.7022 -119.1142 92° East 558 642 35,000  Level Seattle Center
05:18PM 45.6811 -118.8978 98° East 553 636 35,000  Level Seattle Center
05:19PM 45.6194 -118.6961 114° Southeast 553 636 35,000  Level Seattle Center
05:20PM 45.5531 -118.4969 115° Southeast 554 638 35,000  Level Seattle Center
05:21PM 45.4925 -118.2947 113° Southeast 556 640 35,000  Level Seattle Center
05:22PM 45.4350 -118.0897 112° Southeast 556 640 35,000  Level Seattle Center
05:23PM 45.3769 -117.8853 112° Southeast 559 643 35,000  Level Seattle Center
05:24PM 45.3183 -117.6806 112° Southeast 560 644 35,000  Level Seattle Center
05:25PM 45.2592 -117.4764 112° Southeast 560 644 35,000  Level Seattle Center
05:26PM 45.1942 -117.2489 112° Southeast 546 628 35,000  Level Seattle Center
05:27PM 45.1364 -117.0536 113° Southeast 539 620 35,000  Level Seattle Center
05:28PM 45.0781 -116.8569 113° Southeast 541 623 35,000  Level Seattle Center
05:29PM 45.0197 -116.6583 113° Southeast 546 628 35,000  Level Seattle Center
05:30PM 44.9606 -116.4608 113° Southeast 546 628 35,000  Level Seattle Center
05:31PM 44.9006 -116.2625 113° Southeast 548 631 35,000  Level Salt Lake Center
05:32PM 44.8406 -116.0656 113° Southeast 545 627 35,000  Level Salt Lake Center
05:33PM 44.7792 -115.8675 114° Southeast 546 628 35,000  Level Salt Lake Center
05:34PM 44.7189 -115.6697 113° Southeast 546 628 35,000  Level Salt Lake Center
05:35PM 44.6589 -115.4742 113° Southeast 544 626 35,000  Level Salt Lake Center
05:36PM 44.5836 -115.2375 114° Southeast 550 633 35,000  Level Salt Lake Center
05:37PM 44.5225 -115.0436 114° Southeast 546 628 35,000  Level Salt Lake Center
05:38PM 44.4603 -114.8514 114° Southeast 543 625 35,000  Level Salt Lake Center
05:39PM 44.3989 -114.6600 114° Southeast 541 623 35,000  Level Salt Lake Center
05:40PM 44.3364 -114.4678 114° Southeast 543 625 35,000  Level Salt Lake Center
05:41PM 44.2739 -114.2750 114° Southeast 544 626 35,000  Level Salt Lake Center
05:42PM 44.2106 -114.0828 115° Southeast 546 628 35,000  Level Salt Lake Center
05:43PM 44.1397 -113.8642 114° Southeast 548 631 35,000  Level Salt Lake Center
05:44PM 44.0792 -113.6806 115° Southeast 547 629 35,000 -480 Level Salt Lake Center
05:45PM 44.0036 -113.4664 116° Southeast 549 632 34,100 -1,080 Descending Salt Lake Center
05:46PM 43.9433 -113.2867 115° Southeast 542 624 32,800 -1,320 Descending Salt Lake Center
05:48PM 43.8842 -113.1106 115° Southeast 533 613 31,400 -1,500 Descending Salt Lake Center
05:49PM 43.8133 -112.9072 116° Southeast 527 606 29,700 -1,560 Descending Salt Lake Center
05:50PM 43.7539 -112.7344 115° Southeast 522 601 28,300 -1,320 Descending Salt Lake Center
05:51PM 43.6864 -112.5369 115° Southeast 517 595 27,100 -1,080 Descending Salt Lake Center
05:52PM 43.6275 -112.3708 116° Southeast 509 586 26,100 -1,620 Descending Salt Lake Center
05:53PM 43.5600 -112.1797 116° Southeast 503 579 23,800 -2,280 Descending Salt Lake Center
05:54PM 43.5106 -112.0131 112° Southeast 493 567 21,500 -2,160 Descending Salt Lake Center
05:55PM 43.4919 -111.8439 99° East 473 544 19,400 -2,220 Descending Salt Lake Center
05:56PM 43.4703 -111.6575 99° East 455 524 17,000 -2,160 Descending Salt Lake Center
05:57PM 43.4536 -111.5119 99° East 434 499 15,100 -1,920 Descending Salt Lake Center
05:58PM 43.4378 -111.3592 98° East 400 460 13,100 -1,680 Descending Salt Lake Center
05:59PM 43.4839 -111.2806 51° Northeast 319 367 11,700 -1,440 Descending Salt Lake Center
06:00PM 43.5414 -111.1986 46° Northeast 281 323 10,200 -1,260 Descending Salt Lake Center
06:01PM 43.6017 -111.1706 19° North 254 292 9,200 -1,020 Descending Salt Lake Center